createdAt,value
2023-04-25T00:22:59.504Z,4.50
2023-04-25T00:26:01.415Z,4.47
2023-04-25T00:29:03.425Z,4.80
2023-04-25T00:32:05.394Z,4.18
2023-04-25T00:35:07.756Z,4.38
2023-04-25T00:38:10.004Z,4.90
2023-04-25T00:41:12.639Z,5.22
2023-04-25T00:44:17.926Z,4.13
2023-04-25T00:47:20.493Z,4.03
2023-04-25T00:50:22.700Z,4.22
2023-04-25T00:53:26.579Z,3.80
2023-04-25T00:56:28.737Z,3.30
2023-04-25T00:59:31.812Z,3.83
2023-04-25T01:02:38.299Z,3.05
2023-04-25T01:05:42.952Z,3.70
2023-04-25T01:08:44.887Z,3.93
2023-04-25T01:11:46.878Z,3.53
2023-04-25T01:14:48.934Z,3.63
2023-04-25T01:17:50.922Z,3.47
2023-04-25T01:20:53.786Z,3.35
2023-04-25T01:23:57.729Z,2.60
2023-04-25T01:27:01.522Z,2.97
2023-04-25T01:30:04.777Z,3.25
2023-04-25T01:33:09.004Z,3.60
2023-04-25T01:36:11.563Z,3.10
2023-04-25T01:39:14.060Z,2.83
2023-04-25T01:42:16.130Z,2.95
2023-04-25T01:45:18.686Z,3.38
2023-04-25T01:48:20.698Z,3.03
2023-04-25T01:51:23.814Z,2.40
2023-04-25T01:54:25.852Z,2.47
2023-04-25T01:57:27.795Z,2.72
2023-04-25T02:00:30.616Z,2.17
2023-04-25T02:03:33.532Z,2.72
2023-04-25T02:06:36.530Z,3.13
2023-04-25T02:09:38.546Z,2.30
2023-04-25T02:12:42.328Z,2.22
2023-04-25T02:15:59.012Z,2.53
2023-04-25T02:19:01.311Z,2.10
2023-04-25T02:22:03.511Z,1.95
2023-04-25T02:25:05.864Z,1.73
2023-04-25T02:28:08.989Z,1.75
2023-04-25T02:31:11.799Z,1.52
2023-04-25T02:34:13.791Z,1.63
2023-04-25T02:37:15.685Z,1.73
2023-04-25T02:40:20.741Z,1.97
2023-04-25T02:43:23.077Z,2.25
2023-04-25T02:46:38.192Z,1.67
2023-04-25T02:49:41.500Z,2.72
2023-04-25T02:52:44.145Z,2.38
2023-04-25T02:55:53.736Z,2.73
2023-04-25T02:58:56.037Z,3.40
2023-04-25T03:01:58.100Z,2.00
2023-04-25T03:05:00.323Z,2.92
2023-04-25T03:08:03.972Z,2.95
2023-04-25T03:11:08.091Z,3.37
2023-04-25T03:14:11.069Z,2.53
2023-04-25T03:17:12.960Z,2.85
2023-04-25T03:20:14.874Z,2.38
2023-04-25T03:23:16.818Z,2.90
2023-04-25T03:26:18.834Z,3.00
2023-04-25T03:29:25.500Z,2.67
2023-04-25T03:32:28.515Z,3.30
2023-04-25T03:35:30.547Z,2.03
2023-04-25T03:38:32.644Z,3.00
2023-04-25T03:41:34.893Z,2.60
2023-04-25T03:44:40.975Z,3.10
2023-04-25T03:47:43.173Z,2.22
2023-04-25T03:50:45.326Z,2.42
2023-04-25T03:53:49.463Z,3.72
2023-04-25T03:56:54.303Z,3.37
2023-04-25T03:59:58.798Z,3.08
2023-04-25T04:03:02.611Z,2.30
2023-04-25T04:06:06.630Z,3.30
2023-04-25T04:09:12.371Z,2.47
2023-04-25T04:12:17.000Z,2.53
2023-04-25T04:15:19.143Z,3.03
2023-04-25T04:18:22.478Z,2.63
2023-04-25T04:21:24.823Z,3.38
2023-04-25T04:24:26.849Z,2.63
2023-04-25T04:27:34.293Z,3.50
2023-04-25T04:30:53.635Z,3.53
2023-04-25T04:33:55.836Z,2.72
2023-04-25T04:36:58.271Z,3.35
2023-04-25T04:40:06.259Z,3.65
2023-04-25T04:43:31.083Z,4.60
2023-04-25T04:46:47.877Z,3.90
2023-04-25T04:50:17.351Z,3.38
2023-04-25T04:53:38.103Z,3.38
2023-04-25T04:57:10.938Z,4.05
2023-04-25T05:00:27.887Z,3.63
2023-04-25T05:03:47.912Z,3.08
2023-04-25T05:07:05.502Z,3.13
2023-04-25T05:10:08.954Z,4.03
2023-04-25T05:13:39.868Z,3.70
2023-04-25T05:16:54.950Z,4.03
2023-04-25T05:20:19.491Z,3.22
2023-04-25T05:23:36.416Z,3.28
2023-04-25T05:26:59.414Z,3.15
2023-04-25T05:30:19.237Z,4.22
2023-04-25T05:33:44.088Z,3.93
2023-04-25T05:36:49.362Z,4.05
2023-04-25T05:39:54.798Z,3.08
2023-04-25T05:43:25.933Z,4.55
2023-04-25T05:46:39.117Z,4.18
2023-04-25T05:50:03.437Z,4.03
2023-04-25T05:53:17.825Z,3.83
2023-04-25T05:56:19.928Z,5.13
2023-04-25T05:59:24.079Z,4.00
2023-04-25T06:02:27.557Z,4.45
2023-04-25T06:05:29.820Z,4.10
2023-04-25T06:08:51.936Z,3.53
2023-04-25T06:11:53.872Z,3.20
2023-04-25T06:14:55.851Z,3.38
2023-04-25T06:17:57.922Z,3.78
2023-04-25T06:21:00.200Z,3.37
2023-04-25T06:24:02.133Z,3.58
2023-04-25T06:27:04.626Z,3.47
2023-04-25T06:30:07.486Z,3.53
2023-04-25T06:33:10.294Z,3.63
2023-04-25T06:36:13.819Z,2.60
2023-04-25T06:39:17.446Z,2.72
2023-04-25T06:42:19.393Z,2.42
2023-04-25T06:45:27.551Z,2.63
2023-04-25T06:48:29.529Z,2.35
2023-04-25T06:51:31.692Z,1.43
2023-04-25T06:54:33.632Z,2.40
2023-04-25T06:57:41.885Z,2.00
2023-04-25T07:01:04.352Z,2.25
2023-04-25T07:04:07.232Z,2.15
2023-04-25T07:07:11.906Z,2.07
2023-04-25T07:10:22.384Z,2.30
2023-04-25T07:13:24.479Z,2.13
2023-04-25T07:16:26.623Z,2.28
2023-04-25T07:19:30.791Z,2.58
2023-04-25T07:22:35.669Z,2.80
2023-04-25T07:25:39.388Z,2.83
2023-04-25T07:28:42.249Z,2.70
2023-04-25T07:31:44.183Z,2.90
2023-04-25T07:34:46.241Z,1.95
2023-04-25T07:37:48.563Z,0.97
2023-04-25T07:40:53.977Z,1.08
2023-04-25T07:43:56.927Z,0.88
2023-04-25T07:47:39.628Z,0.63
2023-04-25T07:50:42.503Z,0.80
2023-04-25T07:53:45.247Z,0.70
2023-04-25T07:56:53.304Z,0.65
2023-04-25T07:59:58.794Z,0.75
2023-04-25T08:03:42.363Z,1.15
2023-04-25T08:07:51.294Z,0.60
2023-04-25T08:11:15.419Z,0.70
2023-04-25T08:14:17.410Z,0.80
2023-04-25T08:17:20.954Z,0.60
2023-04-25T08:20:23.443Z,0.70
2023-04-25T08:23:27.947Z,0.32
2023-04-25T08:26:44.756Z,0.47
2023-04-25T08:29:51.966Z,0.25
2023-04-25T08:33:14.094Z,0.30
2023-04-25T08:36:39.129Z,0.30
2023-04-25T08:39:53.371Z,0.20
2023-04-25T08:43:15.998Z,0.40
2023-04-25T08:46:21.205Z,0.20
2023-04-25T08:49:48.154Z,0.30
2023-04-25T08:52:53.871Z,0.30
2023-04-25T08:55:57.854Z,0.43
2023-04-25T08:59:02.073Z,0.60
2023-04-25T09:02:07.900Z,0.38
2023-04-25T09:14:26.941Z,0.22
2023-04-25T09:17:41.656Z,0.20
2023-04-25T09:21:00.949Z,0.13
2023-04-25T09:24:08.367Z,0.30
2023-04-25T09:27:12.696Z,0.30
2023-04-25T09:30:17.218Z,0.40
2023-04-25T09:33:59.895Z,0.33
2023-04-25T09:37:06.649Z,0.20
2023-04-25T09:40:31.433Z,1.13
2023-04-25T09:43:47.018Z,0.50
2023-04-25T09:46:54.801Z,0.50
2023-04-25T09:49:59.979Z,0.40
2023-04-25T09:53:06.626Z,0.32
2023-04-25T09:56:36.924Z,0.30
2023-04-25T09:59:45.219Z,0.40
2023-04-25T10:02:49.653Z,0.38
2023-04-25T10:06:24.109Z,0.33
2023-04-25T10:09:27.384Z,0.60
2023-04-25T10:12:29.745Z,0.43
2023-04-25T10:15:34.040Z,0.35
2023-04-25T10:18:36.250Z,0.30
2023-04-25T10:21:47.228Z,0.20
2023-04-25T10:24:51.890Z,0.30
2023-04-25T10:27:54.724Z,0.30
2023-04-25T10:31:05.693Z,0.57
2023-04-25T10:34:07.803Z,0.40
2023-04-25T10:37:31.607Z,1.40
2023-04-25T10:41:10.074Z,0.57
2023-04-25T10:44:11.951Z,0.57
2023-04-25T10:47:14.033Z,0.60
2023-04-25T10:50:19.393Z,0.95
2023-04-25T10:53:26.154Z,0.30
2023-04-25T10:56:48.227Z,0.65
2023-04-25T10:59:50.163Z,0.25
2023-04-25T11:03:00.055Z,0.93
2023-04-25T11:06:03.853Z,0.30
2023-04-25T11:09:14.153Z,0.70
2023-04-25T11:12:17.410Z,0.32
2023-04-25T11:15:19.573Z,0.73
2023-04-25T11:18:21.785Z,0.55
2023-04-25T11:31:45.025Z,0.20
2023-04-25T11:34:47.899Z,0.40
2023-04-25T11:37:50.675Z,0.65
2023-04-25T11:40:56.238Z,0.60
2023-04-25T11:43:58.868Z,0.30
2023-04-25T11:47:02.910Z,0.40
2023-04-25T11:50:06.735Z,0.60
2023-04-25T11:53:09.510Z,0.60
2023-04-25T11:56:14.901Z,0.30
2023-04-25T11:59:17.789Z,0.60
2023-04-25T12:02:27.792Z,0.38
2023-04-25T12:05:34.826Z,0.30
2023-04-25T12:08:38.058Z,0.45
2023-04-25T12:11:44.835Z,0.60
2023-04-25T12:14:51.941Z,0.47
2023-04-25T12:17:56.170Z,0.30
2023-04-25T12:20:59.251Z,0.30
2023-04-25T12:24:12.271Z,0.30
2023-04-25T12:27:19.993Z,0.52
2023-04-25T12:30:22.546Z,0.50
2023-04-25T12:33:25.750Z,0.50
2023-04-25T12:36:27.906Z,0.38
2023-04-25T12:40:09.914Z,0.40
2023-04-25T12:44:11.806Z,0.30
2023-04-25T12:47:36.284Z,0.30
2023-04-25T12:50:38.362Z,0.20
2023-04-25T12:53:41.748Z,0.60
2023-04-25T12:56:43.781Z,0.20
2023-04-25T12:59:46.041Z,0.30
2023-04-25T13:02:48.350Z,0.20
2023-04-25T13:06:10.247Z,0.35
2023-04-25T13:09:32.041Z,0.45
2023-04-25T13:12:34.366Z,0.10
2023-04-25T13:15:36.538Z,0.30
2023-04-25T13:18:38.488Z,0.50
2023-04-25T13:21:40.513Z,0.40
2023-04-25T13:24:42.551Z,0.30
2023-04-25T13:27:45.817Z,0.30
2023-04-25T13:30:49.044Z,0.82
2023-04-25T13:33:51.559Z,0.30
2023-04-25T13:36:53.627Z,0.50
2023-04-25T13:39:56.427Z,0.77
2023-04-25T13:42:58.759Z,0.15
2023-04-25T13:46:00.751Z,0.20
2023-04-25T13:49:11.443Z,0.50
2023-04-25T13:52:14.900Z,0.35
2023-04-25T13:55:16.881Z,0.55
2023-04-25T13:58:59.159Z,0.20
2023-04-25T14:03:00.899Z,0.32
2023-04-25T14:06:24.892Z,0.63
2023-04-25T14:09:28.279Z,0.40
2023-04-25T14:12:30.078Z,0.70
2023-04-25T14:15:35.693Z,0.38
2023-04-25T14:18:37.893Z,0.30
2023-04-25T14:21:40.829Z,0.40
2023-04-25T14:24:43.750Z,0.40
2023-04-25T14:27:50.547Z,0.50
2023-04-25T14:30:52.561Z,0.60
2023-04-25T14:33:56.985Z,0.40
2023-04-25T14:37:00.881Z,0.30
2023-04-25T14:40:04.214Z,0.70
2023-04-25T14:43:06.179Z,0.40
2023-04-25T14:46:08.296Z,0.60
2023-04-25T14:49:10.628Z,0.60
2023-04-25T14:52:12.661Z,0.77
2023-04-25T14:55:15.180Z,0.20
2023-04-25T14:58:17.204Z,0.30
2023-04-25T15:01:21.786Z,0.28
2023-04-25T15:04:24.304Z,0.25
2023-04-25T15:07:26.871Z,0.40
2023-04-25T15:10:29.577Z,0.40
2023-04-25T15:13:32.356Z,0.28
2023-04-25T15:16:34.504Z,0.20
2023-04-25T15:19:37.700Z,0.43
2023-04-25T15:22:41.940Z,0.30
2023-04-25T15:25:44.135Z,0.45
2023-04-25T15:28:46.318Z,0.40
2023-04-25T15:31:48.486Z,0.40
2023-04-25T15:34:51.129Z,0.20
2023-04-25T15:37:53.131Z,0.50
2023-04-25T15:40:55.035Z,0.60
2023-04-25T15:43:57.105Z,0.20
2023-04-25T15:46:59.036Z,0.70
2023-04-25T15:50:01.355Z,0.60
2023-04-25T15:53:05.030Z,0.37
2023-04-25T15:56:08.391Z,0.35
2023-04-25T15:59:10.462Z,0.28
2023-04-25T16:02:14.502Z,0.52
2023-04-25T16:05:17.463Z,0.30
2023-04-25T16:08:19.478Z,0.50
2023-04-25T16:11:21.530Z,0.40
2023-04-25T16:14:23.810Z,0.40
2023-04-25T16:17:28.143Z,0.20
2023-04-25T16:20:30.304Z,0.40
2023-04-25T16:23:52.255Z,0.37
2023-04-25T16:27:14.788Z,0.22
2023-04-25T16:30:36.603Z,0.50
2023-04-25T16:33:58.562Z,0.43
2023-04-25T16:37:01.396Z,0.35
2023-04-25T16:40:03.745Z,0.40
2023-04-25T16:43:07.385Z,0.30
2023-04-25T16:46:09.387Z,0.38
2023-04-25T16:49:11.573Z,0.30
2023-04-25T16:52:13.590Z,0.20
2023-04-25T16:55:15.606Z,0.30
2023-04-25T16:58:17.555Z,0.60
2023-04-25T17:01:22.938Z,0.65
2023-04-25T17:04:25.339Z,0.60
2023-04-25T17:07:27.981Z,0.40
2023-04-25T17:10:30.749Z,0.80
2023-04-25T17:13:36.532Z,0.32
2023-04-25T17:16:41.463Z,0.45
2023-04-25T17:19:43.443Z,0.77
2023-04-25T17:22:45.430Z,1.20
2023-04-25T17:25:47.441Z,1.00
2023-04-25T17:28:49.831Z,1.45
2023-04-25T17:31:53.590Z,0.95
2023-04-25T17:34:56.789Z,0.80
2023-04-25T17:37:59.790Z,1.23
2023-04-25T17:41:02.654Z,1.00
2023-04-25T17:44:04.719Z,1.15
2023-04-25T17:47:08.464Z,2.10
2023-04-25T17:50:10.820Z,1.35
2023-04-25T17:53:13.323Z,0.93
2023-04-25T17:56:26.633Z,1.10
2023-04-25T17:59:29.281Z,1.58
2023-04-25T18:02:31.645Z,0.85
2023-04-25T18:05:35.874Z,1.73
2023-04-25T18:08:38.002Z,2.03
2023-04-25T18:11:39.963Z,1.53
2023-04-25T18:14:41.914Z,2.83
2023-04-25T18:17:44.126Z,2.13
2023-04-25T18:20:47.320Z,2.30
2023-04-25T18:23:50.092Z,3.67
2023-04-25T18:26:53.553Z,2.30
2023-04-25T18:29:55.840Z,2.10
2023-04-25T18:32:58.859Z,2.05
2023-04-25T18:36:00.981Z,2.90
2023-04-25T18:39:21.321Z,1.65
2023-04-25T18:42:24.407Z,2.80
2023-04-25T18:45:26.424Z,2.30
2023-04-25T18:48:29.093Z,3.05
2023-04-25T18:51:31.585Z,2.42
2023-04-25T18:54:34.294Z,1.73
2023-04-25T18:57:36.770Z,1.80
2023-04-25T19:00:39.069Z,1.55
2023-04-25T19:03:41.462Z,2.25
2023-04-25T19:06:43.807Z,2.85
2023-04-25T19:09:47.165Z,2.13
2023-04-25T19:12:49.480Z,1.57
2023-04-25T19:15:51.628Z,1.25
2023-04-25T19:18:55.340Z,2.00
2023-04-25T19:21:59.025Z,2.10
2023-04-25T19:25:10.787Z,0.98
2023-04-25T19:28:13.992Z,1.37
2023-04-25T19:31:16.221Z,1.67
2023-04-25T19:34:18.464Z,1.95
2023-04-25T19:37:20.664Z,1.90
2023-04-25T19:40:23.533Z,1.40
2023-04-25T19:43:26.184Z,1.57
2023-04-25T19:46:28.574Z,0.80
2023-04-25T19:49:31.114Z,1.30
2023-04-25T19:52:34.559Z,0.55
2023-04-25T19:55:36.688Z,2.13
2023-04-25T19:58:39.358Z,1.20
2023-04-25T20:01:41.670Z,1.48
2023-04-25T20:04:43.927Z,1.42
2023-04-25T20:07:46.002Z,1.75
2023-04-25T20:10:49.575Z,1.30
2023-04-25T20:13:51.684Z,1.63
2023-04-25T20:16:54.002Z,1.33
2023-04-25T20:19:56.347Z,0.85
2023-04-25T20:22:58.578Z,1.45
2023-04-25T20:26:00.427Z,0.90
2023-04-25T20:29:02.343Z,0.93
2023-04-25T20:32:04.604Z,1.40
2023-04-25T20:35:09.237Z,1.52
2023-04-25T20:38:12.127Z,1.48
2023-04-25T20:41:14.272Z,1.83
2023-04-25T20:44:16.265Z,1.37
2023-04-25T20:47:18.277Z,1.05
2023-04-25T20:50:20.839Z,1.95
2023-04-25T20:53:23.311Z,1.42
2023-04-25T20:56:25.346Z,0.88
2023-04-25T20:59:27.520Z,0.80
2023-04-25T21:02:29.821Z,1.65
2023-04-25T21:05:32.204Z,1.38
2023-04-25T21:08:35.096Z,0.70
2023-04-25T21:11:38.416Z,1.42
2023-04-25T21:14:40.439Z,0.83
2023-04-25T21:17:42.415Z,1.40
2023-04-25T21:20:44.470Z,1.95
2023-04-25T21:23:46.409Z,1.35
2023-04-25T21:26:48.529Z,1.15
2023-04-25T21:29:50.514Z,0.90
2023-04-25T21:32:52.919Z,0.93
2023-04-25T21:35:54.878Z,2.00
2023-04-25T21:38:56.869Z,1.13
2023-04-25T21:41:58.809Z,1.05
2023-04-25T21:45:02.522Z,1.10
2023-04-25T21:48:05.304Z,0.80
2023-04-25T21:51:07.330Z,0.65
2023-04-25T21:54:09.253Z,0.93
2023-04-25T21:57:11.161Z,1.80
2023-04-25T22:00:24.858Z,1.35
2023-04-25T22:03:27.226Z,1.27
2023-04-25T22:06:29.338Z,0.82
2023-04-25T22:09:34.760Z,1.10
2023-04-25T22:12:43.136Z,1.27
2023-04-25T22:15:45.037Z,1.15
2023-04-25T22:18:48.262Z,1.80
2023-04-25T22:21:50.209Z,1.23
2023-04-25T22:24:52.112Z,1.20
2023-04-25T22:27:55.431Z,1.83
2023-04-25T22:30:57.449Z,1.58
2023-04-25T22:33:59.911Z,1.00
2023-04-25T22:37:02.092Z,1.88
2023-04-25T22:40:09.265Z,2.42
2023-04-25T22:43:11.231Z,1.48
2023-04-25T22:46:16.945Z,1.77
2023-04-25T22:49:19.052Z,0.93
2023-04-25T22:52:20.979Z,1.90
2023-04-25T22:55:22.989Z,1.45
2023-04-25T22:58:24.916Z,1.95
2023-04-25T23:01:28.088Z,1.23
2023-04-25T23:04:30.704Z,1.20
2023-04-25T23:07:34.035Z,2.17
2023-04-25T23:10:37.014Z,1.65
2023-04-25T23:13:38.993Z,1.17
2023-04-25T23:16:40.935Z,1.10
2023-04-25T23:19:43.211Z,1.57
2023-04-25T23:22:45.064Z,1.17
2023-04-25T23:25:47.129Z,1.13
2023-04-25T23:28:49.088Z,2.05
2023-04-25T23:31:51.077Z,1.83
2023-04-25T23:34:53.432Z,1.23
2023-04-25T23:37:55.728Z,1.23
2023-04-25T23:40:58.190Z,1.77
2023-04-25T23:44:00.603Z,1.65
2023-04-25T23:47:02.487Z,1.20
2023-04-25T23:50:11.753Z,0.93
2023-04-25T23:53:14.320Z,0.95
2023-04-25T23:56:16.522Z,1.58
2023-04-25T23:59:18.326Z,1.42
